This is the latest recevied weather packets stored in our database for station/object 9M2ABD-1. If no packets are shown the sender has not sent any weather packets the latest 10 day(s).
| Time | Temp. | Humidity | Pressure | Rain* | Wind** | Luminosity | Snow |
|---|---|---|---|---|---|---|---|
| 1777286362 | 30° C | 75% | 1007.8 hPa | - | - | - | - |
| 1777285162 | 30° C | 75% | 1007.6 hPa | - | - | - | - |
| 1777284016 | 30° C | 75% | 1007.7 hPa | - | - | - | - |
| 1777283961 | 30° C | 75% | 1007.7 hPa | - | - | - | - |
| 1777282762 | 30° C | 76% | 1007.7 hPa | - | - | - | - |
| 1777281561 | 30° C | 78% | 1007.8 hPa | - | - | - | - |
| 1777280361 | 30° C | 75% | 1007.8 hPa | - | - | - | - |
| 1777279161 | 30.56° C | 75% | 1007.7 hPa | - | - | - | - |
| 1777277961 | 30° C | 76% | 1007.5 hPa | - | - | - | - |
| 1777276761 | 30.56° C | 74% | 1007.5 hPa | - | - | - | - |
| 1777275595 | 30.56° C | 71% | 1007.2 hPa | - | - | - | - |
| 1777275561 | 30.56° C | 71% | 1007.2 hPa | - | - | - | - |
| 1777274361 | 31.11° C | 72% | 1007.8 hPa | - | - | - | - |
| 1777273166 | 31.67° C | 71% | 1007.5 hPa | - | - | - | - |
| 1777271966 | 32.22° C | 72% | 1008 hPa | - | - | - | - |
| 1777270766 | 32.22° C | 64% | 1007.8 hPa | - | - | - | - |
| 1777269566 | 32.78° C | 64% | 1007.9 hPa | - | - | - | - |
| 1777267166 | 32.78° C | 62% | 1008.4 hPa | - | - | - | - |
| 1777265966 | 32.78° C | 61% | 1008.4 hPa | - | - | - | - |
| 1777263612 | 32.22° C | 66% | 1009 hPa | - | - | - | - |
| 1777263566 | 32.22° C | 66% | 1009 hPa | - | - | - | - |
| 1777261165 | 31.67° C | 70% | 1009.8 hPa | - | - | - | - |
| 1777260093 | 31.11° C | 73% | 1009.9 hPa | - | - | - | - |
| 1777259965 | 31.11° C | 73% | 1009.9 hPa | - | - | - | - |
| 1777258760 | 30.56° C | 72% | 1010.2 hPa | - | - | - | - |
* Rain since midnight (hover to see other rain measurements)
** Current wind speed in m/s (hover to see current wind gust speed)